Time;durP1;ratioP1;P1;durP2;ratioP2;P2;SDS_P1;SDS_P2;PMS_P1;PMS_P2;Temp;Humidity;BMP_temperature;BMP_pressure;BME280_temperature;BME280_humidity;BME280_pressure;Samples;Min_cycle;Max_cycle;Signal;HPM_P1;HPM_P2
2023/04/21 03:44:46;;;;;;;16.08;10.35;;;9.00;99.90;;;;;;5056290;28;20098;-72
2023/04/21 03:47:12;;;;;;;18.33;10.10;;;9.00;99.90;;;;;;5037700;28;20041;-72
2023/04/21 03:49:37;;;;;;;16.45;10.25;;;9.00;99.90;;;;;;5021563;28;20037;-72
2023/04/21 03:52:03;;;;;;;17.58;10.73;;;9.00;99.90;;;;;;5037920;28;20048;-72
2023/04/21 03:54:29;;;;;;;20.20;10.93;;;9.10;99.90;;;;;;5037768;28;20045;-71
2023/04/21 03:56:55;;;;;;;16.60;10.63;;;9.00;99.90;;;;;;5037672;28;20033;-71
2023/04/21 03:59:20;;;;;;;18.67;10.68;;;9.00;99.90;;;;;;5037746;28;20048;-71
2023/04/21 04:01:46;;;;;;;17.33;10.25;;;9.00;99.90;;;;;;5037690;28;20077;-71
2023/04/21 04:04:11;;;;;;;18.00;10.73;;;9.00;99.90;;;;;;5037702;28;20045;-72
2023/04/21 04:06:37;;;;;;;16.55;10.48;;;9.10;99.90;;;;;;5021428;28;20041;-71
2023/04/21 04:09:03;;;;;;;13.90;10.75;;;9.10;99.90;;;;;;5036341;28;20401;-71
2023/04/21 04:11:30;;;;;;;15.73;10.80;;;9.10;99.90;;;;;;5037721;28;20045;-72
2023/04/21 04:13:56;;;;;;;18.95;11.23;;;9.10;99.90;;;;;;5037428;28;20045;-72
2023/04/21 04:16:21;;;;;;;17.23;10.65;;;9.10;99.90;;;;;;5037483;28;20040;-72
2023/04/21 04:18:49;;;;;;;18.90;11.35;;;9.10;99.90;;;;;;5020859;28;20518;-72
2023/04/21 04:21:15;;;;;;;17.95;10.52;;;9.20;99.90;;;;;;5037285;28;20036;-72
2023/04/21 04:23:41;;;;;;;14.88;10.60;;;9.10;99.90;;;;;;5037254;28;20052;-72
2023/04/21 04:26:07;;;;;;;21.30;11.10;;;9.20;99.90;;;;;;5037172;28;20413;-72
2023/04/21 04:28:33;;;;;;;22.20;11.02;;;9.10;99.90;;;;;;5020635;28;20033;-72
2023/04/21 04:30:59;;;;;;;19.60;11.85;;;9.10;99.90;;;;;;5037071;28;20045;-71
2023/04/21 04:33:25;;;;;;;16.83;10.75;;;9.10;99.90;;;;;;5037138;28;20083;-72
2023/04/21 04:35:51;;;;;;;18.38;11.93;;;9.10;99.90;;;;;;5037187;28;20044;-71
2023/04/21 04:38:17;;;;;;;20.25;11.02;;;9.10;99.90;;;;;;5037306;28;20145;-71
2023/04/21 04:40:43;;;;;;;23.77;11.77;;;9.10;99.90;;;;;;5036890;28;20504;-71
2023/04/21 04:43:09;;;;;;;17.25;10.82;;;9.10;99.90;;;;;;5020402;28;20094;-72
2023/04/21 04:45:36;;;;;;;19.30;11.07;;;9.00;99.90;;;;;;5036830;28;20405;-71
2023/04/21 04:48:02;;;;;;;20.60;11.77;;;9.10;99.90;;;;;;5036813;28;20596;-72
2023/04/21 04:50:29;;;;;;;18.80;12.20;;;9.10;99.90;;;;;;5036758;28;20033;-72
2023/04/21 04:52:56;;;;;;;16.17;11.05;;;9.00;99.90;;;;;;5036604;28;20428;-72
2023/04/21 04:55:22;;;;;;;18.23;11.20;;;9.00;99.90;;;;;;5020107;28;20043;-72
2023/04/21 04:57:47;;;;;;;21.55;11.48;;;8.90;99.90;;;;;;5019996;28;20041;-71
2023/04/21 05:00:13;;;;;;;15.98;10.93;;;8.90;99.90;;;;;;5036547;28;20029;-71
2023/04/21 05:02:39;;;;;;;18.13;11.20;;;8.90;99.90;;;;;;5036529;28;20067;-71
2023/04/21 05:05:06;;;;;;;16.48;10.50;;;9.00;99.90;;;;;;5036493;28;20028;-71
2023/04/21 05:07:33;;;;;;;17.20;11.18;;;9.00;99.90;;;;;;5036264;28;20087;-71
2023/04/21 05:09:59;;;;;;;19.30;12.10;;;9.00;99.90;;;;;;5036575;28;20053;-71
2023/04/21 05:12:25;;;;;;;22.45;11.40;;;9.00;99.90;;;;;;5036361;28;20089;-71
2023/04/21 05:14:50;;;;;;;16.75;11.27;;;9.00;99.90;;;;;;5036370;28;20115;-71
2023/04/21 05:17:16;;;;;;;16.73;10.45;;;9.00;99.90;;;;;;5054066;28;20171;-71
2023/04/21 05:19:42;;;;;;;16.83;10.23;;;9.00;99.90;;;;;;5036230;28;20066;-71
2023/04/21 05:22:07;;;;;;;17.73;10.93;;;9.10;99.90;;;;;;5036200;28;20412;-71
2023/04/21 05:24:33;;;;;;;19.05;10.90;;;9.10;99.90;;;;;;5036206;28;20060;-71
2023/04/21 05:27:01;;;;;;;17.80;11.00;;;9.10;99.90;;;;;;5035954;28;20056;-71
2023/04/21 05:29:27;;;;;;;15.48;10.43;;;9.10;99.90;;;;;;5036128;28;20045;-71
2023/04/21 05:31:53;;;;;;;15.65;10.30;;;9.10;99.90;;;;;;5036415;28;20060;-71
2023/04/21 05:34:18;;;;;;;18.55;10.55;;;9.10;99.90;;;;;;5036504;28;20433;-71
2023/04/21 05:36:44;;;;;;;15.68;10.77;;;9.20;99.90;;;;;;5036370;28;20048;-71
2023/04/21 05:39:10;;;;;;;15.85;10.20;;;9.20;99.90;;;;;;5035867;28;20051;-71
2023/04/21 05:41:35;;;;;;;18.00;10.25;;;9.20;99.90;;;;;;5035864;28;20047;-72
2023/04/21 05:44:01;;;;;;;18.52;10.20;;;9.20;99.90;;;;;;5019389;28;20032;-71
2023/04/21 05:46:27;;;;;;;14.90;10.48;;;9.20;99.90;;;;;;5035481;28;20098;-71
2023/04/21 05:48:53;;;;;;;17.23;9.45;;;9.30;99.90;;;;;;5035940;28;20041;-72
2023/04/21 05:51:18;;;;;;;14.82;9.80;;;9.30;99.90;;;;;;5035685;28;20090;-71
2023/04/21 05:53:44;;;;;;;18.10;9.95;;;9.30;99.90;;;;;;5035609;28;20029;-71
2023/04/21 05:56:11;;;;;;;19.17;10.25;;;9.40;99.90;;;;;;5035726;28;20110;-71
2023/04/21 05:58:37;;;;;;;15.32;10.05;;;9.40;99.90;;;;;;5035822;28;20049;-71
2023/04/21 06:01:04;;;;;;;16.60;9.65;;;9.40;99.90;;;;;;5035532;28;20090;-71
2023/04/21 06:03:30;;;;;;;14.32;9.73;;;9.50;99.90;;;;;;5019028;28;20076;-71
2023/04/21 06:05:57;;;;;;;13.57;9.20;;;9.50;99.90;;;;;;5035293;28;20072;-71
2023/04/21 06:08:23;;;;;;;13.50;10.05;;;9.60;99.90;;;;;;5035642;28;20130;-71
2023/04/21 06:10:48;;;;;;;17.60;10.55;;;9.60;99.90;;;;;;5035314;28;20511;-71
2023/04/21 06:13:14;;;;;;;17.88;10.18;;;9.60;99.90;;;;;;5035652;28;20045;-71
2023/04/21 06:15:40;;;;;;;16.95;9.35;;;9.70;99.90;;;;;;5035249;28;20408;-71
2023/04/21 06:18:05;;;;;;;21.17;9.73;;;9.70;99.90;;;;;;5035307;28;20033;-71
2023/04/21 06:20:31;;;;;;;17.80;9.73;;;9.80;99.90;;;;;;5035562;28;20036;-71
2023/04/21 06:22:56;;;;;;;16.83;9.65;;;9.80;99.90;;;;;;5035277;28;20398;-71
2023/04/21 06:25:22;;;;;;;13.40;8.80;;;9.90;99.90;;;;;;5035150;28;20045;-71
2023/04/21 06:27:48;;;;;;;16.98;8.55;;;10.00;99.90;;;;;;5035108;28;20041;-71
2023/04/21 06:30:13;;;;;;;18.23;8.60;;;10.10;99.90;;;;;;5035006;28;20063;-71
2023/04/21 06:32:39;;;;;;;15.18;8.70;;;10.10;99.90;;;;;;5034601;28;20043;-72
2023/04/21 06:35:05;;;;;;;20.00;9.43;;;10.10;99.90;;;;;;5018744;28;20052;-71
2023/04/21 06:37:30;;;;;;;16.30;8.52;;;10.20;99.90;;;;;;5035537;28;20115;-71
2023/04/21 06:39:56;;;;;;;18.55;9.30;;;10.20;99.90;;;;;;5018652;28;20057;-71
2023/04/21 06:42:22;;;;;;;17.17;8.98;;;10.30;99.90;;;;;;5035075;28;20047;-71
2023/04/21 06:44:47;;;;;;;15.10;9.05;;;10.40;99.90;;;;;;5035010;28;20041;-71
2023/04/21 06:47:15;;;;;;;14.95;8.32;;;10.40;99.90;;;;;;5018372;28;20049;-71
2023/04/21 06:49:41;;;;;;;20.17;9.10;;;10.50;99.90;;;;;;5035029;28;20045;-71
2023/04/21 06:52:07;;;;;;;16.83;8.63;;;10.60;99.90;;;;;;5035178;28;20052;-71
2023/04/21 06:54:32;;;;;;;20.52;9.20;;;10.60;99.90;;;;;;5034891;28;20512;-71
2023/04/21 06:56:58;;;;;;;14.00;8.90;;;10.70;99.90;;;;;;5035153;28;20080;-71
2023/04/21 06:59:23;;;;;;;16.50;8.70;;;10.70;99.90;;;;;;5034944;28;20505;-71
2023/04/21 07:01:51;;;;;;;14.85;8.63;;;10.80;99.90;;;;;;5035131;28;20052;-71
2023/04/21 07:04:17;;;;;;;16.58;8.50;;;10.80;99.90;;;;;;5034788;28;20041;-72
2023/04/21 07:06:42;;;;;;;14.75;9.25;;;10.80;99.90;;;;;;5018286;28;20053;-71
2023/04/21 07:09:09;;;;;;;16.75;8.18;;;10.90;99.90;;;;;;5034822;28;20100;-71
2023/04/21 07:11:34;;;;;;;19.15;8.63;;;11.00;99.90;;;;;;5034686;28;20047;-71
2023/04/21 07:14:01;;;;;;;16.20;8.45;;;11.00;99.90;;;;;;5034786;28;20040;-71
2023/04/21 07:16:27;;;;;;;17.48;8.35;;;11.20;99.90;;;;;;5034960;28;20040;-71
2023/04/21 07:18:53;;;;;;;15.23;8.52;;;11.30;99.90;;;;;;5034713;28;20077;-71
2023/04/21 07:21:18;;;;;;;17.13;8.45;;;11.40;99.90;;;;;;5035001;28;20080;-71
2023/04/21 07:23:44;;;;;;;16.60;8.50;;;11.50;99.90;;;;;;5034741;28;20043;-71
2023/04/21 07:26:10;;;;;;;13.38;8.07;;;11.60;99.90;;;;;;5034573;28;20040;-71
2023/04/21 07:28:37;;;;;;;12.65;8.13;;;11.70;99.90;;;;;;5034612;28;20037;-71
2023/04/21 07:31:02;;;;;;;15.20;8.02;;;11.70;99.90;;;;;;5034568;28;20041;-71
2023/04/21 07:33:28;;;;;;;17.63;8.63;;;11.80;99.90;;;;;;5018452;28;20083;-71
2023/04/21 07:35:53;;;;;;;17.75;8.38;;;11.90;99.90;;;;;;5034496;28;20037;-71
2023/04/21 07:38:19;;;;;;;14.77;8.50;;;12.10;99.90;;;;;;5034605;28;20063;-71
2023/04/21 07:40:45;;;;;;;13.30;8.18;;;12.20;99.90;;;;;;5034505;28;20098;-71
2023/04/21 07:43:10;;;;;;;19.88;9.10;;;12.40;99.90;;;;;;5036686;28;20071;-71
2023/04/21 07:45:36;;;;;;;15.10;7.57;;;12.50;99.90;;;;;;5021392;28;20048;-71
2023/04/21 07:48:02;;;;;;;14.43;7.97;;;12.60;99.90;;;;;;5038330;28;20246;-72
2023/04/21 07:50:27;;;;;;;13.05;7.78;;;12.70;99.90;;;;;;5038210;28;20037;-72
2023/04/21 07:52:53;;;;;;;15.02;8.35;;;12.90;99.90;;;;;;5037932;28;20417;-72
2023/04/21 07:55:18;;;;;;;17.10;8.13;;;13.10;99.90;;;;;;5038169;28;20044;-72
2023/04/21 07:57:44;;;;;;;14.30;8.00;;;13.20;99.90;;;;;;5037777;28;20485;-72
2023/04/21 08:00:10;;;;;;;16.90;8.50;;;13.30;99.90;;;;;;5021344;28;20041;-71
2023/04/21 08:02:36;;;;;;;15.65;8.20;;;13.30;99.90;;;;;;5038456;28;20117;-71
2023/04/21 08:05:02;;;;;;;15.85;8.77;;;13.40;99.90;;;;;;5037790;28;20091;-71
2023/04/21 08:07:27;;;;;;;16.65;8.35;;;13.50;99.90;;;;;;5037497;28;20041;-71
2023/04/21 08:09:53;;;;;;;13.80;7.88;;;13.60;99.90;;;;;;5021141;28;20037;-71
2023/04/21 08:12:19;;;;;;;14.68;7.45;;;13.70;99.90;;;;;;5021303;28;20033;-71
2023/04/21 08:14:44;;;;;;;17.08;7.70;;;13.80;99.90;;;;;;5037816;28;20430;-71
2023/04/21 08:17:10;;;;;;;16.27;8.25;;;14.00;99.90;;;;;;5037434;28;20520;-71
2023/04/21 08:19:35;;;;;;;13.23;7.93;;;14.10;99.90;;;;;;5037480;28;20051;-71
2023/04/21 08:22:01;;;;;;;18.15;8.00;;;14.20;99.90;;;;;;5037388;28;20083;-71
2023/04/21 08:24:27;;;;;;;11.55;7.82;;;14.40;99.90;;;;;;5037701;28;20132;-71
2023/04/21 08:26:53;;;;;;;16.48;7.53;;;14.60;99.90;;;;;;5037646;28;20533;-71
2023/04/21 08:29:18;;;;;;;13.48;7.93;;;14.80;99.90;;;;;;5037278;28;20088;-71
2023/04/21 08:31:44;;;;;;;19.73;7.78;;;14.90;99.90;;;;;;5037507;28;20033;-71
2023/04/21 08:34:10;;;;;;;13.57;7.70;;;15.00;99.90;;;;;;5037360;28;20473;-71
2023/04/21 08:36:35;;;;;;;17.02;8.25;;;15.00;99.90;;;;;;5020561;28;20437;-71
2023/04/21 08:39:01;;;;;;;14.18;7.80;;;15.00;99.90;;;;;;5037115;28;20044;-71
2023/04/21 08:41:27;;;;;;;18.05;7.93;;;15.00;99.90;;;;;;5037048;28;20040;-69
2023/04/21 08:43:52;;;;;;;17.83;8.32;;;15.10;99.90;;;;;;5036997;28;20044;-69
2023/04/21 08:46:18;;;;;;;15.00;8.23;;;15.10;99.90;;;;;;5036718;28;20045;-69
2023/04/21 08:48:45;;;;;;;15.73;7.63;;;15.20;99.50;;;;;;5037150;28;20041;-69
2023/04/21 08:51:19;;;;;;;17.33;7.97;;;15.30;99.80;;;;;;5037086;28;20124;-69
2023/04/21 08:53:45;;;;;;;15.57;8.18;;;15.30;99.10;;;;;;5036391;28;20063;-69
2023/04/21 08:56:10;;;;;;;13.50;7.57;;;15.30;98.80;;;;;;5020237;28;20037;-69
2023/04/21 08:58:36;;;;;;;16.60;8.02;;;15.40;98.90;;;;;;5036669;28;20070;-69
2023/04/21 09:01:02;;;;;;;14.05;6.85;;;15.40;98.60;;;;;;5036595;28;20044;-69
2023/04/21 09:03:29;;;;;;;17.45;7.53;;;15.40;98.50;;;;;;5036854;28;20048;-69
2023/04/21 09:06:05;;;;;;;16.80;7.55;;;15.50;98.50;;;;;;5036384;28;20045;-69
2023/04/21 09:08:31;;;;;;;16.33;7.85;;;15.60;98.00;;;;;;5036543;28;20075;-69
2023/04/21 09:11:00;;;;;;;15.38;8.32;;;15.60;97.70;;;;;;5036883;28;20137;-69
2023/04/21 09:13:32;;;;;;;15.05;7.40;;;15.70;97.40;;;;;;5036494;28;20045;-69
2023/04/21 09:15:58;;;;;;;13.85;7.45;;;15.70;96.80;;;;;;5036597;28;20055;-69
2023/04/21 09:18:26;;;;;;;15.02;7.82;;;15.70;96.60;;;;;;5019816;28;20041;-69
2023/04/21 09:21:05;;;;;;;14.52;7.53;;;15.70;96.30;;;;;;5036315;28;20049;-69
2023/04/21 09:23:35;;;;;;;13.43;7.63;;;15.70;96.10;;;;;;5036322;28;20527;-69
2023/04/21 09:26:02;;;;;;;10.77;7.32;;;15.70;96.20;;;;;;5036083;28;20052;-69
2023/04/21 09:28:31;;;;;;;17.10;8.45;;;15.70;96.10;;;;;;5036180;28;20158;-69
2023/04/21 09:30:57;;;;;;;13.93;7.20;;;15.90;95.60;;;;;;5036108;28;20147;-69
2023/04/21 09:33:22;;;;;;;19.20;7.60;;;16.00;95.40;;;;;;5019842;28;20067;-69
2023/04/21 09:35:48;;;;;;;14.10;7.90;;;16.10;94.90;;;;;;5035973;28;20531;-69
2023/04/21 09:38:14;;;;;;;13.90;7.50;;;16.00;94.60;;;;;;5036162;28;20089;-69
2023/04/21 09:40:39;;;;;;;16.15;7.50;;;16.10;94.00;;;;;;5035900;28;20033;-69
2023/04/21 09:43:06;;;;;;;14.65;7.47;;;16.10;93.70;;;;;;5019751;28;20167;-69
2023/04/21 09:45:32;;;;;;;15.85;7.53;;;16.20;93.70;;;;;;5035888;28;20127;-69
2023/04/21 09:48:02;;;;;;;20.58;8.57;;;16.30;93.30;;;;;;5019616;28;20032;-69
2023/04/21 09:50:29;;;;;;;15.80;7.65;;;16.30;93.10;;;;;;5036033;28;20537;-69
2023/04/21 09:52:56;;;;;;;14.00;7.05;;;16.40;92.90;;;;;;5035670;28;20076;-69
2023/04/21 09:55:26;;;;;;;12.55;7.22;;;16.40;92.40;;;;;;5035670;28;20044;-69
2023/04/21 09:57:56;;;;;;;13.68;7.50;;;16.40;92.30;;;;;;5035558;28;20044;-69
2023/04/21 10:00:27;;;;;;;18.83;7.30;;;16.40;92.20;;;;;;5035899;28;20540;-69
2023/04/21 10:02:54;;;;;;;15.25;7.18;;;16.50;91.90;;;;;;5019150;28;20041;-69
2023/04/21 10:05:20;;;;;;;13.20;7.38;;;16.50;91.80;;;;;;5034997;28;20041;-69
2023/04/21 10:07:47;;;;;;;15.20;7.70;;;16.60;91.80;;;;;;5034959;28;20124;-69
2023/04/21 10:10:20;;;;;;;19.08;8.23;;;16.70;91.60;;;;;;5035404;28;20037;-69
2023/04/21 10:12:46;;;;;;;10.82;7.45;;;16.80;91.90;;;;;;5018875;28;20090;-69
2023/04/21 10:15:36;;;;;;;14.63;8.10;;;17.00;91.70;;;;;;5035341;28;20041;-69
2023/04/21 10:18:16;;;;;;;16.05;7.97;;;17.30;90.00;;;;;;5035567;28;20055;-69
2023/04/21 10:20:52;;;;;;;13.68;7.35;;;17.60;90.40;;;;;;5035623;28;20037;-69
2023/04/21 10:23:29;;;;;;;15.65;7.78;;;18.00;89.70;;;;;;5035260;28;20076;-69
2023/04/21 10:26:19;;;;;;;14.35;7.35;;;18.20;88.40;;;;;;5035271;28;20118;-69
2023/04/21 10:28:51;;;;;;;15.43;7.97;;;18.50;86.50;;;;;;5035191;28;20037;-69
2023/04/21 10:31:20;;;;;;;20.83;8.50;;;18.80;86.40;;;;;;5035152;28;20125;-69
2023/04/21 10:34:07;;;;;;;15.63;7.85;;;19.20;84.80;;;;;;5035114;28;20037;-69
2023/04/21 10:36:34;;;;;;;19.10;7.85;;;19.40;83.60;;;;;;5035042;28;20041;-69
2023/04/21 10:39:02;;;;;;;11.77;7.78;;;19.60;81.30;;;;;;5035272;28;20045;-69
2023/04/21 10:41:32;;;;;;;14.07;8.27;;;19.70;79.40;;;;;;5018663;28;20040;-69
2023/04/21 10:44:11;;;;;;;17.42;8.48;;;19.70;79.20;;;;;;5035057;28;20040;-69
2023/04/21 10:46:39;;;;;;;18.95;8.18;;;19.60;78.80;;;;;;5034789;28;20041;-69
2023/04/21 10:49:10;;;;;;;12.23;7.90;;;19.60;78.90;;;;;;5034945;28;20033;-69
2023/04/21 10:52:07;;;;;;;11.43;8.07;;;19.60;78.60;;;;;;5035010;28;20037;-69
2023/04/21 10:54:46;;;;;;;15.32;7.80;;;19.90;77.20;;;;;;5009370;28;20045;-69
2023/04/21 10:57:18;;;;;;;11.65;7.88;;;20.00;77.80;;;;;;5034907;28;20124;-69
2023/04/21 10:59:45;;;;;;;13.68;7.47;;;20.00;75.90;;;;;;5034862;28;20048;-69
2023/04/21 11:02:12;;;;;;;15.52;7.65;;;19.90;75.80;;;;;;5034850;28;20048;-69
2023/04/21 11:04:43;;;;;;;14.25;7.03;;;19.90;76.00;;;;;;5034841;28;20500;-69
2023/04/21 11:07:20;;;;;;;16.05;7.28;;;19.90;75.80;;;;;;5034842;28;20053;-69
2023/04/21 11:09:47;;;;;;;17.80;7.78;;;20.00;76.00;;;;;;5034869;28;20477;-69
2023/04/21 11:12:17;;;;;;;13.48;7.28;;;20.20;74.70;;;;;;5034754;28;20154;-69
2023/04/21 11:14:46;;;;;;;16.20;7.55;;;20.30;72.50;;;;;;5034780;28;20044;-69
2023/04/21 11:17:18;;;;;;;13.38;7.40;;;20.10;71.70;;;;;;5035482;28;20041;-69
2023/04/21 11:19:51;;;;;;;13.55;7.15;;;20.00;72.10;;;;;;5022154;28;20059;-69
2023/04/21 11:22:18;;;;;;;14.52;6.38;;;19.90;72.00;;;;;;5038791;28;20072;-69
2023/04/21 11:24:45;;;;;;;11.65;6.88;;;19.80;71.80;;;;;;5038408;28;20049;-69
2023/04/21 11:27:13;;;;;;;11.77;6.47;;;19.80;70.90;;;;;;5038802;28;20037;-69
2023/04/21 11:29:39;;;;;;;12.98;6.95;;;19.80;70.90;;;;;;5021956;28;20083;-69
2023/04/21 11:32:06;;;;;;;12.45;6.43;;;19.90;70.80;;;;;;5038359;28;20052;-69
2023/04/21 11:34:31;;;;;;;13.48;6.90;;;19.90;70.10;;;;;;5038318;28;20043;-69
2023/04/21 11:36:57;;;;;;;15.88;6.88;;;19.90;70.20;;;;;;5038153;28;20119;-69
2023/04/21 11:39:23;;;;;;;14.25;6.13;;;19.80;70.30;;;;;;5038486;28;20041;-69
2023/04/21 11:41:50;;;;;;;11.77;5.85;;;19.80;69.80;;;;;;5038368;28;20052;-69
2023/04/21 11:44:35;;;;;;;11.80;5.85;;;19.90;69.30;;;;;;5038063;28;20489;-69
2023/04/21 11:47:19;;;;;;;10.70;5.25;;;20.10;69.30;;;;;;5037843;28;20072;-69
2023/04/21 11:49:46;;;;;;;14.15;5.88;;;20.30;67.30;;;;;;5038265;28;20128;-69
2023/04/21 11:52:32;;;;;;;15.18;5.97;;;20.50;66.50;;;;;;5037929;28;20041;-69
2023/04/21 11:55:10;;;;;;;15.40;5.68;;;20.70;67.90;;;;;;5037940;28;20047;-69
2023/04/21 11:57:35;;;;;;;12.32;5.80;;;20.60;65.90;;;;;;5037860;28;20047;-69
2023/04/21 12:00:05;;;;;;;11.98;5.53;;;20.50;66.00;;;;;;5037736;28;20045;-69
2023/04/21 12:02:31;;;;;;;11.00;5.07;;;20.40;65.70;;;;;;5037687;28;20037;-69
2023/04/21 12:05:06;;;;;;;9.50;5.25;;;20.40;65.60;;;;;;5037766;28;20490;-69
2023/04/21 12:07:36;;;;;;;12.02;4.78;;;20.40;64.50;;;;;;5037575;28;20500;-69
2023/04/21 12:10:12;;;;;;;15.40;4.80;;;20.30;64.10;;;;;;5037670;28;20125;-69
2023/04/21 12:12:39;;;;;;;17.45;4.70;;;20.20;63.00;;;;;;5037570;28;20040;-69
2023/04/21 12:15:06;;;;;;;13.15;4.55;;;20.10;63.40;;;;;;5037553;28;20126;-69
2023/04/21 12:17:48;;;;;;;11.07;5.00;;;20.00;63.90;;;;;;5037679;28;20040;-69
2023/04/21 12:20:20;;;;;;;10.52;3.83;;;19.90;63.90;;;;;;5037408;28;20079;-69
2023/04/21 12:22:46;;;;;;;10.48;4.60;;;19.80;64.30;;;;;;5037431;28;20045;-69
2023/04/21 12:25:12;;;;;;;12.18;4.15;;;19.90;63.50;;;;;;5037632;28;20090;-69
2023/04/21 12:27:50;;;;;;;16.75;4.38;;;19.90;63.10;;;;;;5037142;28;20047;-69
2023/04/21 12:30:17;;;;;;;14.25;4.30;;;20.00;62.60;;;;;;5036268;28;20033;-69
2023/04/21 12:32:42;;;;;;;9.63;3.75;;;19.80;62.80;;;;;;5037491;28;20070;-69
2023/04/21 12:35:08;;;;;;;15.82;3.58;;;19.70;62.30;;;;;;5037294;28;20469;-69
2023/04/21 12:37:34;;;;;;;11.63;3.50;;;19.60;62.00;;;;;;5037594;28;20052;-69
2023/04/21 12:39:59;;;;;;;9.98;3.40;;;19.50;62.20;;;;;;5038175;28;20385;-69
2023/04/21 12:42:25;;;;;;;11.23;3.85;;;19.60;62.30;;;;;;5036989;28;20417;-69
2023/04/21 12:44:51;;;;;;;11.75;3.70;;;19.50;62.30;;;;;;5037324;28;20044;-69
2023/04/21 12:47:16;;;;;;;11.98;3.50;;;19.50;62.40;;;;;;5036736;28;20044;-69
2023/04/21 12:49:42;;;;;;;8.52;3.95;;;19.50;62.50;;;;;;5037192;28;20045;-69
2023/04/21 12:52:08;;;;;;;16.52;4.25;;;19.40;61.90;;;;;;5036892;28;20044;-69
2023/04/21 12:54:34;;;;;;;12.85;3.72;;;19.30;61.20;;;;;;5037039;28;20109;-69
2023/04/21 12:57:00;;;;;;;10.77;3.30;;;19.30;61.40;;;;;;5036961;28;20480;-69
2023/04/21 12:59:26;;;;;;;7.78;3.63;;;19.40;61.60;;;;;;5036682;28;20041;-69
2023/04/21 13:01:51;;;;;;;9.85;3.55;;;19.80;60.20;;;;;;5036717;28;20090;-69
2023/04/21 13:04:17;;;;;;;14.77;3.70;;;20.00;60.10;;;;;;5036950;28;20048;-69
2023/04/21 13:06:42;;;;;;;9.73;3.63;;;20.10;59.70;;;;;;5036473;28;20047;-69
2023/04/21 13:09:08;;;;;;;13.70;3.40;;;20.00;58.50;;;;;;5036822;28;20037;-69
2023/04/21 13:11:34;;;;;;;10.05;3.83;;;20.00;58.50;;;;;;5036753;28;20501;-69
2023/04/21 13:13:59;;;;;;;10.13;3.85;;;20.10;58.20;;;;;;5036436;28;20040;-69
2023/04/21 13:16:25;;;;;;;11.27;3.60;;;20.30;58.00;;;;;;5036535;28;20155;-69
2023/04/21 13:18:51;;;;;;;11.48;3.97;;;20.40;57.70;;;;;;5036638;28;20045;-69
2023/04/21 13:21:16;;;;;;;14.70;4.40;;;20.40;58.20;;;;;;5036309;28;20048;-70
2023/04/21 13:23:42;;;;;;;9.40;3.22;;;20.30;57.60;;;;;;5036231;28;20037;-70
2023/04/21 13:26:08;;;;;;;12.95;3.95;;;20.20;57.00;;;;;;5053901;28;20041;-70
2023/04/21 13:28:34;;;;;;;10.07;3.63;;;20.30;57.40;;;;;;5036366;28;20492;-70
2023/04/21 13:31:00;;;;;;;15.30;3.70;;;20.60;56.80;;;;;;5036090;28;20405;-70
2023/04/21 13:33:25;;;;;;;11.05;3.47;;;20.60;56.40;;;;;;5036369;28;20404;-70
2023/04/21 13:35:51;;;;;;;8.95;3.20;;;20.60;56.00;;;;;;5036213;28;20149;-70
2023/04/21 13:38:17;;;;;;;9.73;3.42;;;20.60;55.80;;;;;;5035965;28;20460;-70
2023/04/21 13:40:44;;;;;;;11.90;3.60;;;20.60;55.60;;;;;;5036026;28;20115;-70
2023/04/21 13:43:10;;;;;;;11.25;3.58;;;20.50;56.30;;;;;;5035898;28;20040;-70
2023/04/21 13:45:36;;;;;;;7.18;3.10;;;20.60;56.40;;;;;;5035849;28;20043;-70
2023/04/21 13:48:02;;;;;;;10.48;3.10;;;20.60;55.40;;;;;;5035792;28;20512;-70
2023/04/21 13:50:28;;;;;;;12.80;3.38;;;20.60;55.40;;;;;;5035806;28;20036;-70
2023/04/21 13:52:53;;;;;;;12.73;3.38;;;20.50;55.70;;;;;;5035729;28;20037;-70
2023/04/21 13:55:19;;;;;;;11.15;3.20;;;20.40;55.60;;;;;;5035725;28;20068;-70
2023/04/21 13:57:45;;;;;;;11.70;3.17;;;20.30;55.10;;;;;;5035565;28;20044;-70
2023/04/21 14:00:11;;;;;;;11.07;2.83;;;20.30;55.30;;;;;;5035583;28;20128;-70
2023/04/21 14:02:38;;;;;;;11.48;3.30;;;20.50;55.20;;;;;;5035512;28;20102;-70
2023/04/21 14:05:04;;;;;;;9.65;2.97;;;20.90;55.30;;;;;;5019367;28;20060;-70
2023/04/21 14:07:29;;;;;;;10.77;2.97;;;21.00;54.70;;;;;;5035343;28;20041;-71
2023/04/21 14:09:56;;;;;;;9.35;2.95;;;21.00;53.60;;;;;;5019201;28;20040;-70
2023/04/21 14:12:24;;;;;;;11.32;2.90;;;21.00;53.80;;;;;;5035664;28;20137;-70
2023/04/21 14:14:50;;;;;;;13.60;3.15;;;21.00;53.60;;;;;;5035454;28;20094;-70
2023/04/21 14:17:16;;;;;;;12.77;2.90;;;20.90;53.20;;;;;;5035165;28;20044;-70
2023/04/21 14:19:41;;;;;;;9.95;2.90;;;20.90;52.50;;;;;;5035304;28;20040;-70
2023/04/21 14:22:07;;;;;;;6.93;2.30;;;20.80;52.50;;;;;;5035315;28;20068;-70
2023/04/21 14:24:33;;;;;;;10.90;2.72;;;20.70;52.20;;;;;;5018771;28;20037;-70
2023/04/21 14:26:59;;;;;;;6.90;2.70;;;20.70;52.50;;;;;;5035236;28;20037;-70
2023/04/21 14:29:24;;;;;;;7.20;2.70;;;20.80;51.90;;;;;;5035245;28;20508;-70
2023/04/21 14:31:52;;;;;;;11.60;2.90;;;20.90;51.60;;;;;;5035203;28;20040;-70
2023/04/21 14:34:18;;;;;;;16.40;3.05;;;20.90;51.30;;;;;;5035118;28;20098;-70
2023/04/21 14:36:46;;;;;;;9.85;2.55;;;20.80;51.10;;;;;;5035057;28;20036;-70
2023/04/21 14:39:11;;;;;;;8.07;2.33;;;20.80;51.20;;;;;;5035139;28;20040;-70
2023/04/21 14:41:37;;;;;;;12.88;2.78;;;20.90;51.00;;;;;;5052860;28;20166;-70
2023/04/21 14:44:03;;;;;;;13.82;2.60;;;21.00;51.30;;;;;;5035326;28;20128;-70
2023/04/21 14:46:28;;;;;;;8.95;2.72;;;21.00;49.60;;;;;;5034848;28;20033;-70
2023/04/21 14:48:54;;;;;;;11.00;2.50;;;20.90;49.40;;;;;;5035051;28;20048;-70
2023/04/21 14:51:20;;;;;;;7.68;2.58;;;21.00;49.80;;;;;;5035052;28;20033;-70
2023/04/21 14:53:46;;;;;;;7.05;2.60;;;21.20;49.30;;;;;;5038375;28;20041;-70
2023/04/21 14:56:11;;;;;;;18.77;3.33;;;21.20;48.40;;;;;;5022352;28;20041;-70
2023/04/21 14:58:37;;;;;;;18.05;2.92;;;21.10;48.80;;;;;;5039250;28;20072;-70
2023/04/21 15:01:03;;;;;;;15.35;3.08;;;21.10;48.60;;;;;;5038977;28;20098;-70
2023/04/21 15:03:29;;;;;;;12.45;2.30;;;21.10;48.80;;;;;;5039139;28;20080;-70
2023/04/21 15:05:55;;;;;;;13.77;3.03;;;21.10;48.90;;;;;;5038696;28;20539;-70
2023/04/21 15:08:20;;;;;;;9.95;2.30;;;21.10;48.80;;;;;;5039088;28;20041;-70
2023/04/21 15:10:46;;;;;;;10.95;2.85;;;21.00;48.20;;;;;;5038755;28;20455;-71
2023/04/21 15:13:12;;;;;;;8.35;2.20;;;20.90;48.00;;;;;;5038741;28;20065;-71
2023/04/21 15:15:39;;;;;;;10.23;2.45;;;20.80;47.70;;;;;;5022151;28;20040;-71
2023/04/21 15:18:05;;;;;;;9.18;2.67;;;20.70;47.70;;;;;;5038806;28;20033;-70
2023/04/21 15:20:30;;;;;;;9.25;2.42;;;20.70;48.20;;;;;;5038877;28;20473;-70
2023/04/21 15:22:56;;;;;;;9.27;2.72;;;20.60;48.90;;;;;;5038787;28;20409;-70
2023/04/21 15:25:22;;;;;;;11.23;2.83;;;20.50;48.70;;;;;;5022096;28;20493;-71
2023/04/21 15:27:47;;;;;;;9.93;2.60;;;20.40;48.40;;;;;;5038231;28;20103;-71
2023/04/21 15:30:13;;;;;;;9.38;2.90;;;20.40;48.20;;;;;;5022192;28;20040;-71
2023/04/21 15:32:39;;;;;;;14.10;2.78;;;20.40;48.90;;;;;;5021868;28;20139;-71
2023/04/21 15:35:05;;;;;;;6.47;2.38;;;20.30;49.10;;;;;;5038245;28;20120;-71
2023/04/21 15:37:31;;;;;;;9.43;2.67;;;20.30;48.80;;;;;;5038414;28;20055;-71
2023/04/21 15:39:57;;;;;;;10.43;2.70;;;20.20;48.80;;;;;;5038241;28;20115;-70
2023/04/21 15:42:22;;;;;;;10.07;2.78;;;20.20;48.60;;;;;;5038132;28;20055;-70
2023/04/21 15:44:48;;;;;;;10.77;2.58;;;20.20;48.40;;;;;;5038196;28;20056;-70
2023/04/21 15:47:15;;;;;;;17.75;3.55;;;20.20;48.20;;;;;;5037923;28;20131;-70
2023/04/21 15:49:41;;;;;;;8.60;2.97;;;20.20;48.00;;;;;;5039180;28;20091;-70
2023/04/21 15:52:07;;;;;;;10.57;2.60;;;20.20;48.40;;;;;;5038007;28;20029;-71
2023/04/21 15:54:33;;;;;;;4.72;2.40;;;20.20;49.30;;;;;;5037902;28;20041;-71
2023/04/21 15:57:01;;;;;;;12.52;3.13;;;20.10;49.20;;;;;;5037803;28;20044;-71
2023/04/21 15:59:27;;;;;;;10.95;2.75;;;20.10;49.00;;;;;;5037793;28;20565;-71
2023/04/21 16:01:52;;;;;;;10.75;3.20;;;20.10;48.40;;;;;;5037843;28;20115;-71
2023/04/21 16:04:18;;;;;;;12.30;2.97;;;20.00;48.60;;;;;;5021296;28;20128;-71
2023/04/21 16:06:44;;;;;;;10.10;2.50;;;20.00;49.00;;;;;;5037700;28;20053;-71
2023/04/21 16:09:10;;;;;;;8.05;2.80;;;20.00;49.20;;;;;;5037862;28;20037;-71
2023/04/21 16:11:36;;;;;;;9.50;2.70;;;20.00;49.20;;;;;;5037654;28;20493;-71
2023/04/21 16:14:01;;;;;;;8.40;2.50;;;20.10;49.00;;;;;;5037589;28;20044;-71
2023/04/21 16:16:27;;;;;;;8.55;2.58;;;20.20;48.80;;;;;;5037721;28;20041;-71
2023/04/21 16:18:53;;;;;;;11.00;2.42;;;20.20;49.00;;;;;;5037515;28;20045;-71
2023/04/21 16:21:19;;;;;;;9.38;2.63;;;20.20;49.00;;;;;;5037455;28;20048;-71